Time;durP1;ratioP1;P1;durP2;ratioP2;P2;SDS_P1;SDS_P2;PMS_P1;PMS_P2;Temp;Humidity;BMP_temperature;BMP_pressure;BME280_temperature;BME280_humidity;BME280_pressure;Samples;Min_cycle;Max_cycle;Signal;HPM_P1;HPM_P2
2021/09/05 00:00:08;;;;;;;61.35;37.28;;;15.40;99.90;;;;;;4986816;28;20201;-75
2021/09/05 00:02:34;;;;;;;61.25;37.42;;;15.30;99.90;;;;;;4981574;28;20306;-76
2021/09/05 00:05:01;;;;;;;72.32;38.95;;;15.30;99.90;;;;;;4987861;28;20194;-77
2021/09/05 00:07:28;;;;;;;65.40;39.65;;;15.30;99.90;;;;;;4989238;28;20384;-76
2021/09/05 00:09:57;;;;;;;66.05;40.22;;;15.20;99.90;;;;;;4988045;28;20305;-77
2021/09/05 00:12:24;;;;;;;70.05;38.75;;;15.10;99.90;;;;;;4983366;28;20666;-77
2021/09/05 00:14:50;;;;;;;70.10;40.13;;;15.10;99.90;;;;;;4985857;28;20191;-77
2021/09/05 00:17:17;;;;;;;72.78;41.03;;;15.10;99.90;;;;;;4986645;28;20230;-76
2021/09/05 00:19:44;;;;;;;73.07;40.63;;;15.10;99.90;;;;;;4987559;28;20222;-76
2021/09/05 00:22:12;;;;;;;66.77;39.90;;;15.10;99.90;;;;;;4985821;28;20289;-79
2021/09/05 00:24:39;;;;;;;73.03;41.93;;;15.10;99.90;;;;;;4988021;28;20250;-79
2021/09/05 00:27:07;;;;;;;70.05;41.10;;;15.10;99.90;;;;;;4986004;28;20265;-79
2021/09/05 00:29:34;;;;;;;71.23;39.43;;;15.10;99.90;;;;;;4988036;28;20277;-78
2021/09/05 00:32:01;;;;;;;72.85;40.65;;;15.00;99.90;;;;;;4982528;28;20289;-78
2021/09/05 00:34:28;;;;;;;70.83;40.33;;;15.00;99.90;;;;;;4987106;28;20203;-77
2021/09/05 00:36:55;;;;;;;75.55;40.70;;;15.00;99.90;;;;;;4988920;28;20229;-77
2021/09/05 00:39:22;;;;;;;67.80;39.72;;;15.00;99.90;;;;;;4985089;28;20293;-77
2021/09/05 00:41:49;;;;;;;73.97;40.05;;;15.00;99.90;;;;;;4989018;28;20569;-77
2021/09/05 00:44:17;;;;;;;74.97;41.50;;;14.90;99.90;;;;;;4984273;28;20206;-76
2021/09/05 00:46:44;;;;;;;72.55;40.75;;;14.90;99.90;;;;;;4986515;28;20218;-77
2021/09/05 00:49:12;;;;;;;69.10;39.97;;;15.00;99.90;;;;;;4984476;28;20195;-77
2021/09/05 00:51:41;;;;;;;74.17;40.13;;;14.90;99.90;;;;;;4987899;28;20222;-78
2021/09/05 00:54:10;;;;;;;73.10;41.23;;;14.80;99.90;;;;;;4985954;28;20199;-78
2021/09/05 00:56:39;;;;;;;73.13;42.40;;;14.80;99.90;;;;;;4986642;28;20237;-77
2021/09/05 00:59:07;;;;;;;76.93;43.67;;;14.80;99.90;;;;;;4983937;28;20257;-81
2021/09/05 01:01:36;;;;;;;75.10;41.70;;;14.70;99.90;;;;;;4986132;28;20666;-81
2021/09/05 01:04:03;;;;;;;73.97;41.57;;;14.80;99.90;;;;;;4985140;28;20749;-81
2021/09/05 01:06:32;;;;;;;73.10;41.45;;;14.70;99.90;;;;;;4988734;28;20205;-79
2021/09/05 01:08:59;;;;;;;76.80;41.97;;;14.70;99.90;;;;;;4984332;28;20294;-79
2021/09/05 01:11:26;;;;;;;74.80;42.43;;;14.60;99.90;;;;;;4987612;28;20642;-80
2021/09/05 01:13:53;;;;;;;73.47;41.37;;;14.60;99.90;;;;;;4980656;28;20317;-78
2021/09/05 01:16:30;;;;;;;74.80;40.97;;;14.60;99.90;;;;;;4989708;28;20241;-78
2021/09/05 01:19:03;;;;;;;70.73;40.67;;;14.60;99.90;;;;;;4987400;28;20313;-76
2021/09/05 01:21:30;;;;;;;72.13;40.23;;;14.60;99.90;;;;;;4977958;28;20262;-78
2021/09/05 01:23:57;;;;;;;71.67;41.17;;;14.60;99.90;;;;;;4985520;28;20211;-78
2021/09/05 01:26:26;;;;;;;74.40;39.60;;;14.60;99.90;;;;;;4990225;28;20286;-78
2021/09/05 01:28:54;;;;;;;73.93;39.80;;;14.50;99.90;;;;;;4987385;28;20560;-77
2021/09/05 01:31:21;;;;;;;69.07;40.33;;;14.40;99.90;;;;;;4990103;28;20282;-78
2021/09/05 01:33:49;;;;;;;74.00;40.83;;;14.40;99.90;;;;;;4990327;28;20197;-78
2021/09/05 01:36:16;;;;;;;71.57;40.77;;;14.40;99.90;;;;;;4988735;28;20759;-78
2021/09/05 01:38:43;;;;;;;73.47;40.73;;;14.30;99.90;;;;;;4988792;28;20297;-79
2021/09/05 01:41:10;;;;;;;72.73;39.37;;;14.30;99.90;;;;;;4986902;28;20595;-78
2021/09/05 01:43:37;;;;;;;69.97;39.07;;;14.30;99.90;;;;;;4987269;28;20294;-78
2021/09/05 01:46:06;;;;;;;69.67;40.07;;;14.30;99.90;;;;;;4987414;28;20198;-77
2021/09/05 01:48:32;;;;;;;68.17;38.97;;;14.30;99.90;;;;;;4987047;28;20199;-79
2021/09/05 01:50:59;;;;;;;67.90;39.83;;;14.20;99.90;;;;;;4989374;28;20201;-79
2021/09/05 01:53:26;;;;;;;69.57;38.57;;;14.30;99.90;;;;;;4986422;28;20232;-79
2021/09/05 01:55:53;;;;;;;77.07;40.90;;;14.20;99.90;;;;;;4990864;28;20286;-79
2021/09/05 01:58:20;;;;;;;77.33;41.37;;;14.20;99.90;;;;;;4986674;28;20318;-79
2021/09/05 02:00:47;;;;;;;77.13;40.73;;;14.30;99.90;;;;;;4987631;28;20282;-78
2021/09/05 02:03:15;;;;;;;75.33;41.53;;;14.10;99.90;;;;;;4986948;28;20294;-79
2021/09/05 02:05:42;;;;;;;73.63;41.13;;;14.10;99.90;;;;;;4988609;28;20540;-80
2021/09/05 02:08:09;;;;;;;75.93;41.80;;;14.10;99.90;;;;;;4986498;28;20199;-80
2021/09/05 02:10:36;;;;;;;74.27;40.27;;;14.10;99.90;;;;;;4983491;28;20764;-79
2021/09/05 02:13:03;;;;;;;78.40;43.17;;;14.00;99.90;;;;;;4989919;28;20197;-77
2021/09/05 02:15:30;;;;;;;74.63;40.33;;;14.10;99.90;;;;;;4985830;28;20210;-79
2021/09/05 02:17:56;;;;;;;79.93;42.83;;;14.00;99.90;;;;;;4989369;28;20241;-79
2021/09/05 02:20:25;;;;;;;77.40;42.47;;;14.00;99.90;;;;;;4986985;28;20205;-78
2021/09/05 02:22:55;;;;;;;76.43;40.70;;;14.00;99.90;;;;;;4985055;28;20253;-80
2021/09/05 02:25:22;;;;;;;77.70;41.97;;;14.00;99.90;;;;;;4986940;28;20238;-78
2021/09/05 02:27:49;;;;;;;86.80;42.23;;;14.00;99.90;;;;;;4988128;28;20231;-77
2021/09/05 02:30:16;;;;;;;82.47;42.63;;;13.90;99.90;;;;;;4988690;28;20609;-79
2021/09/05 02:32:43;;;;;;;80.57;42.13;;;14.00;99.90;;;;;;4986920;28;20215;-79
2021/09/05 02:35:11;;;;;;;83.20;42.43;;;14.00;99.90;;;;;;4988597;28;20199;-79
2021/09/05 02:37:39;;;;;;;75.90;41.17;;;13.90;99.90;;;;;;4987409;28;20218;-79
2021/09/05 02:40:08;;;;;;;76.73;41.53;;;13.90;99.90;;;;;;4984193;28;20347;-79
2021/09/05 02:42:38;;;;;;;72.67;39.73;;;13.80;99.90;;;;;;4987762;28;20282;-79
2021/09/05 02:45:07;;;;;;;74.00;40.60;;;13.80;99.90;;;;;;4986829;28;20198;-80
2021/09/05 02:47:34;;;;;;;76.07;39.33;;;13.80;99.90;;;;;;4982980;28;20205;-80
2021/09/05 02:50:01;;;;;;;73.37;39.17;;;13.80;99.90;;;;;;4985235;28;20195;-80
2021/09/05 02:52:29;;;;;;;73.53;39.00;;;13.90;99.90;;;;;;4985370;28;20209;-78
2021/09/05 02:54:57;;;;;;;67.93;37.43;;;13.70;99.90;;;;;;4990238;28;20190;-79
2021/09/05 02:57:27;;;;;;;71.10;38.40;;;13.70;99.90;;;;;;4985702;28;20313;-80
2021/09/05 03:00:12;;;;;;;73.30;40.87;;;13.70;99.90;;;;;;4987580;28;20202;-80
2021/09/05 03:02:43;;;;;;;78.13;39.13;;;13.70;99.90;;;;;;4985884;28;20632;-80
2021/09/05 03:05:13;;;;;;;69.17;36.83;;;13.70;99.90;;;;;;4982728;28;20226;-79
2021/09/05 03:07:41;;;;;;;68.50;37.77;;;13.70;99.90;;;;;;4988109;28;20291;-80
2021/09/05 03:10:12;;;;;;;69.93;37.23;;;13.70;99.90;;;;;;4990577;28;20290;-80
2021/09/05 03:12:42;;;;;;;73.67;38.80;;;13.80;99.90;;;;;;4986289;28;20200;-80
2021/09/05 03:15:15;;;;;;;70.60;37.27;;;13.60;99.90;;;;;;4991032;28;20206;-79
2021/09/05 03:17:45;;;;;;;60.67;35.20;;;13.60;99.90;;;;;;4985518;28;20315;-83
2021/09/05 03:20:16;;;;;;;70.83;37.33;;;13.60;99.90;;;;;;4990773;28;20195;-81
2021/09/05 03:22:43;;;;;;;66.13;38.40;;;13.60;99.90;;;;;;4986008;28;20707;-79
2021/09/05 03:25:14;;;;;;;72.60;36.27;;;13.50;99.90;;;;;;4987444;28;20191;-80
2021/09/05 03:27:43;;;;;;;62.87;33.87;;;13.50;99.90;;;;;;4986559;28;20506;-79
2021/09/05 03:30:14;;;;;;;62.87;34.73;;;13.50;99.90;;;;;;4992422;28;20742;-79
2021/09/05 03:32:44;;;;;;;72.67;36.70;;;13.40;99.90;;;;;;4985199;28;20559;-80
2021/09/05 03:35:19;;;;;;;69.23;36.47;;;13.40;99.90;;;;;;4986332;28;20191;-80
2021/09/05 03:37:46;;;;;;;63.33;34.13;;;13.40;99.90;;;;;;4987303;28;20258;-82
2021/09/05 03:40:16;;;;;;;66.13;37.20;;;13.40;99.90;;;;;;4989905;28;20721;-83
2021/09/05 03:42:43;;;;;;;66.03;35.73;;;13.40;99.90;;;;;;4986797;28;20703;-83
2021/09/05 03:45:16;;;;;;;67.50;35.93;;;13.30;99.90;;;;;;4989742;28;20598;-78
2021/09/05 03:47:43;;;;;;;67.73;34.33;;;13.30;99.90;;;;;;4985083;28;20547;-83
2021/09/05 03:50:10;;;;;;;67.03;35.33;;;13.30;99.90;;;;;;4988658;28;20246;-82
2021/09/05 03:52:38;;;;;;;59.97;35.23;;;13.20;99.90;;;;;;4987152;28;20237;-82
2021/09/05 03:55:08;;;;;;;66.33;35.93;;;13.30;99.90;;;;;;4986281;28;20281;-80
2021/09/05 03:57:37;;;;;;;69.37;34.40;;;13.30;99.90;;;;;;4985117;28;20234;-80
2021/09/05 04:02:49;;;;;;;65.73;34.87;;;13.20;99.90;;;;;;4964559;28;20210;-81
2021/09/05 04:05:18;;;;;;;64.60;34.13;;;13.20;99.90;;;;;;4985146;28;20281;-80
2021/09/05 04:08:00;;;;;;;62.17;34.53;;;13.20;99.90;;;;;;4987439;28;20195;-82
2021/09/05 04:10:27;;;;;;;64.03;34.93;;;13.20;99.90;;;;;;4985033;28;20206;-82
2021/09/05 04:12:59;;;;;;;65.60;35.70;;;13.20;99.90;;;;;;4987348;28;20291;-82
2021/09/05 04:15:27;;;;;;;68.97;35.67;;;13.20;99.90;;;;;;4988124;28;20195;-81
2021/09/05 04:20:39;;;;;;;61.53;34.20;;;13.10;99.90;;;;;;4982278;28;20569;-81
2021/09/05 04:23:06;;;;;;;66.80;34.57;;;13.20;99.90;;;;;;4986483;28;20199;-82
2021/09/05 04:25:33;;;;;;;62.27;33.60;;;13.10;99.90;;;;;;4986610;28;20654;-78
2021/09/05 04:28:01;;;;;;;62.23;33.83;;;13.10;99.90;;;;;;4981884;28;20202;-79
2021/09/05 04:30:28;;;;;;;62.30;34.50;;;13.10;99.90;;;;;;4985390;28;20213;-80
2021/09/05 04:32:55;;;;;;;57.17;34.87;;;13.10;99.90;;;;;;4985612;28;20657;-81
2021/09/05 04:35:22;;;;;;;64.37;34.07;;;13.10;99.90;;;;;;4988321;28;20214;-81
2021/09/05 04:37:52;;;;;;;64.17;32.73;;;13.10;99.90;;;;;;4987067;28;20322;-81
2021/09/05 04:40:19;;;;;;;63.30;33.83;;;13.00;99.90;;;;;;4988423;28;20226;-80
2021/09/05 04:42:46;;;;;;;62.77;33.73;;;13.00;99.90;;;;;;4985453;28;20199;-81
2021/09/05 04:45:17;;;;;;;62.33;33.27;;;13.00;99.90;;;;;;4987755;28;20195;-82
2021/09/05 04:47:44;;;;;;;55.30;31.00;;;13.00;99.90;;;;;;4985779;28;20195;-81
2021/09/05 04:50:11;;;;;;;61.40;33.77;;;13.00;99.90;;;;;;4985245;28;20198;-84
2021/09/05 04:52:42;;;;;;;60.73;34.00;;;13.00;99.90;;;;;;4985940;28;20294;-80
2021/09/05 04:55:09;;;;;;;59.40;32.43;;;12.90;99.90;;;;;;4985521;28;20195;-82
2021/09/05 04:57:36;;;;;;;56.37;32.83;;;12.90;99.90;;;;;;4983200;28;20258;-81
2021/09/05 05:00:06;;;;;;;55.93;31.57;;;12.90;99.90;;;;;;4988316;28;20325;-82
2021/09/05 05:02:39;;;;;;;58.27;32.07;;;12.90;99.90;;;;;;4986395;28;20322;-81
2021/09/05 05:05:07;;;;;;;65.90;33.43;;;12.90;99.90;;;;;;4987360;28;20199;-83
2021/09/05 05:07:34;;;;;;;58.43;32.73;;;12.80;99.90;;;;;;4985482;28;20209;-81
2021/09/05 05:10:01;;;;;;;59.63;32.60;;;12.80;99.90;;;;;;4987788;28;20210;-80
2021/09/05 05:15:15;;;;;;;57.17;32.73;;;12.80;99.90;;;;;;4985567;28;20199;-82
2021/09/05 05:17:58;;;;;;;60.53;32.57;;;12.90;99.90;;;;;;4978983;28;20305;-80
2021/09/05 05:20:34;;;;;;;58.67;31.03;;;12.90;99.90;;;;;;4985094;28;20286;-77
2021/09/05 05:23:03;;;;;;;57.17;32.73;;;12.90;99.90;;;;;;4985474;28;20194;-80
2021/09/05 05:25:33;;;;;;;59.83;33.63;;;13.00;99.90;;;;;;4984772;28;20199;-81
2021/09/05 05:28:00;;;;;;;61.10;33.03;;;13.00;99.90;;;;;;4982901;28;20203;-83
2021/09/05 05:30:27;;;;;;;55.60;33.07;;;13.10;99.90;;;;;;4984709;28;20214;-82
2021/09/05 05:32:55;;;;;;;53.77;31.57;;;13.20;99.90;;;;;;4987102;28;20614;-81
2021/09/05 05:35:24;;;;;;;52.47;31.13;;;13.20;99.90;;;;;;4986949;28;20685;-80
2021/09/05 05:37:54;;;;;;;56.00;36.97;;;13.20;99.90;;;;;;4985735;28;20887;-84
2021/09/05 05:40:25;;;;;;;55.10;33.20;;;13.30;99.90;;;;;;4986661;28;20199;-82
2021/09/05 05:42:55;;;;;;;53.13;31.90;;;13.40;99.90;;;;;;4987526;28;20196;-85
2021/09/05 05:45:23;;;;;;;53.97;31.20;;;13.40;99.90;;;;;;4984365;28;20209;-86
2021/09/05 05:47:50;;;;;;;48.73;30.33;;;13.50;99.90;;;;;;4983304;28;20704;-84
2021/09/05 05:50:17;;;;;;;49.47;31.03;;;13.50;99.90;;;;;;4982022;28;20207;-85
2021/09/05 05:52:57;;;;;;;53.47;31.13;;;13.50;99.90;;;;;;4986086;28;20203;-82
2021/09/05 05:55:24;;;;;;;52.47;30.23;;;13.50;99.90;;;;;;4986299;28;20270;-84
2021/09/05 05:58:02;;;;;;;52.80;31.60;;;13.50;99.90;;;;;;4986377;28;20583;-84
2021/09/05 06:00:30;;;;;;;54.03;30.00;;;13.50;99.90;;;;;;4979201;28;20198;-85
2021/09/05 06:02:58;;;;;;;47.27;29.43;;;13.50;99.90;;;;;;4983278;28;20343;-83
2021/09/05 06:05:26;;;;;;;47.27;29.33;;;13.50;99.90;;;;;;4984146;28;20825;-83
2021/09/05 06:07:53;;;;;;;49.53;29.93;;;13.40;99.90;;;;;;4984464;28;20221;-84
2021/09/05 06:10:21;;;;;;;46.83;29.77;;;13.40;99.90;;;;;;4985596;28;20646;-84
2021/09/05 06:12:48;;;;;;;46.37;30.20;;;13.50;99.90;;;;;;4987928;28;20225;-84
2021/09/05 06:15:15;;;;;;;48.80;28.67;;;13.50;99.90;;;;;;4986552;28;20225;-86
2021/09/05 06:17:42;;;;;;;45.40;27.73;;;13.60;99.90;;;;;;4986132;28;20309;-89
2021/09/05 06:20:10;;;;;;;47.40;28.03;;;13.70;99.90;;;;;;4992795;28;20211;-88
2021/09/05 06:22:41;;;;;;;48.10;29.80;;;13.70;99.90;;;;;;4989622;28;20734;-86
2021/09/05 06:25:11;;;;;;;45.40;29.30;;;13.70;99.90;;;;;;4988320;28;20195;-85
2021/09/05 06:27:40;;;;;;;46.50;29.13;;;14.00;99.90;;;;;;4987898;28;20194;-85
2021/09/05 06:30:08;;;;;;;47.47;29.77;;;13.80;99.90;;;;;;4989533;28;20226;-84
2021/09/05 06:32:35;;;;;;;44.37;28.97;;;13.90;99.90;;;;;;4987957;28;20218;-85
2021/09/05 06:35:02;;;;;;;45.40;28.57;;;14.00;99.90;;;;;;4988011;28;20560;-85
2021/09/05 06:37:29;;;;;;;46.60;29.00;;;14.10;99.90;;;;;;4990540;28;20842;-87
2021/09/05 06:39:56;;;;;;;45.13;29.53;;;14.20;99.90;;;;;;4988628;28;20280;-87
2021/09/05 06:42:26;;;;;;;42.93;28.93;;;14.20;99.90;;;;;;4983355;28;20566;-87
2021/09/05 06:44:54;;;;;;;44.60;28.97;;;14.20;99.90;;;;;;4984819;28;20275;-86
2021/09/05 06:47:21;;;;;;;39.50;27.87;;;14.30;99.90;;;;;;4985328;28;20202;-87
2021/09/05 06:49:48;;;;;;;43.73;29.43;;;14.30;99.90;;;;;;4984298;28;20216;-83
2021/09/05 06:52:15;;;;;;;43.67;28.40;;;14.40;99.90;;;;;;4990038;28;20641;-85
2021/09/05 06:54:42;;;;;;;39.80;27.17;;;14.30;99.90;;;;;;4988360;28;20286;-83
2021/09/05 06:57:09;;;;;;;40.60;27.43;;;14.40;99.90;;;;;;4994414;28;20206;-86
2021/09/05 06:59:36;;;;;;;46.05;28.50;;;14.60;99.90;;;;;;4997798;28;20228;-86
2021/09/05 07:02:04;;;;;;;43.07;29.40;;;14.70;99.90;;;;;;4997072;28;20262;-87
2021/09/05 07:04:32;;;;;;;40.13;27.37;;;14.80;99.90;;;;;;4982667;28;20283;-87
2021/09/05 07:06:59;;;;;;;41.63;28.70;;;14.80;99.90;;;;;;5010163;28;20195;-85
2021/09/05 07:09:26;;;;;;;43.50;29.63;;;14.80;99.90;;;;;;5002053;28;20258;-86
2021/09/05 07:11:53;;;;;;;44.63;28.93;;;14.80;99.90;;;;;;4987170;28;20263;-85
2021/09/05 07:14:19;;;;;;;43.60;27.88;;;14.90;99.90;;;;;;4985810;28;20318;-86
2021/09/05 07:16:46;;;;;;;40.00;28.92;;;15.00;99.90;;;;;;4988300;28;20305;-85
2021/09/05 07:19:14;;;;;;;43.15;27.23;;;15.30;99.90;;;;;;4990064;28;20222;-84
2021/09/05 07:21:42;;;;;;;38.40;25.58;;;16.30;99.90;;;;;;4986367;28;20229;-80
2021/09/05 07:24:10;;;;;;;37.58;26.42;;;18.00;99.90;;;;;;4984360;28;20695;-80
2021/09/05 07:26:38;;;;;;;33.97;24.27;;;18.50;99.90;;;;;;4987363;28;20201;-80
2021/09/05 07:29:05;;;;;;;32.90;25.13;;;18.00;99.90;;;;;;4984783;28;20266;-80
2021/09/05 07:31:32;;;;;;;34.00;25.80;;;18.60;99.90;;;;;;4988567;28;20199;-81
2021/09/05 07:33:59;;;;;;;34.22;25.45;;;18.30;99.90;;;;;;4985402;28;20191;-79
2021/09/05 07:36:27;;;;;;;37.17;25.20;;;18.30;99.90;;;;;;4987390;28;20222;-77
2021/09/05 07:38:54;;;;;;;35.60;26.35;;;18.90;99.90;;;;;;4986036;28;20358;-79
2021/09/05 07:41:21;;;;;;;32.58;23.88;;;19.50;99.90;;;;;;5000150;28;20271;-84
2021/09/05 07:43:48;;;;;;;36.95;26.33;;;19.30;99.90;;;;;;4992296;28;20217;-85
2021/09/05 07:46:15;;;;;;;34.25;25.70;;;19.30;99.90;;;;;;4991517;28;20245;-83
2021/09/05 07:48:42;;;;;;;34.60;25.40;;;19.10;99.90;;;;;;4987922;28;20241;-82
2021/09/05 07:51:09;;;;;;;33.95;24.88;;;19.80;99.90;;;;;;4992275;28;20241;-83
2021/09/05 07:53:37;;;;;;;36.55;25.45;;;21.10;99.90;;;;;;4986947;28;20289;-81
2021/09/05 07:56:05;;;;;;;35.30;25.38;;;19.90;99.90;;;;;;4989450;28;20198;-78
2021/09/05 07:58:31;;;;;;;37.67;27.52;;;19.90;99.90;;;;;;4985650;28;20229;-76
2021/09/05 08:00:58;;;;;;;34.35;26.42;;;19.30;99.90;;;;;;4983583;28;20290;-78
2021/09/05 08:03:25;;;;;;;35.83;25.90;;;19.40;99.90;;;;;;4983173;28;20297;-80
2021/09/05 08:05:52;;;;;;;34.00;25.08;;;19.60;99.90;;;;;;4986854;28;20290;-79
2021/09/05 08:08:19;;;;;;;35.03;25.00;;;20.30;99.90;;;;;;4986324;28;20225;-79
2021/09/05 08:10:47;;;;;;;36.75;26.05;;;21.30;99.90;;;;;;4985622;28;20233;-79
2021/09/05 08:13:14;;;;;;;36.45;25.35;;;21.60;99.90;;;;;;4990513;28;20224;-79
2021/09/05 08:15:41;;;;;;;36.40;26.95;;;20.20;99.90;;;;;;4982725;28;20622;-79
2021/09/05 08:18:08;;;;;;;33.13;25.65;;;20.70;99.90;;;;;;4985491;28;20294;-81
2021/09/05 08:20:35;;;;;;;34.83;25.55;;;21.10;99.90;;;;;;4987802;28;20724;-79
2021/09/05 08:23:02;;;;;;;38.33;26.17;;;20.90;99.90;;;;;;4984705;28;20231;-82
2021/09/05 08:25:31;;;;;;;33.80;24.67;;;20.70;99.90;;;;;;4988585;28;20198;-81
2021/09/05 08:27:59;;;;;;;33.38;25.60;;;22.40;99.90;;;;;;4982043;28;20203;-78
2021/09/05 08:30:26;;;;;;;36.70;24.98;;;22.40;99.90;;;;;;4990294;28;20203;-78
2021/09/05 08:32:53;;;;;;;33.60;23.90;;;21.30;99.90;;;;;;4987388;28;20199;-80
2021/09/05 08:35:20;;;;;;;39.33;25.05;;;22.00;99.90;;;;;;4988202;28;20191;-79
2021/09/05 08:37:47;;;;;;;33.20;24.27;;;23.50;99.90;;;;;;4986665;28;20207;-78
2021/09/05 08:40:14;;;;;;;30.38;23.38;;;24.60;99.90;;;;;;4986794;28;20644;-81
2021/09/05 08:42:40;;;;;;;34.08;26.10;;;25.80;99.90;;;;;;4988623;28;20290;-83
2021/09/05 08:45:10;;;;;;;31.30;23.73;;;23.50;99.90;;;;;;4973275;28;20564;-82
2021/09/05 08:47:37;;;;;;;31.33;23.27;;;24.30;99.90;;;;;;4993060;28;20202;-82
2021/09/05 08:50:06;;;;;;;30.38;24.80;;;24.70;99.90;;;;;;4986242;28;20207;-83
2021/09/05 08:52:33;;;;;;;30.95;24.13;;;25.20;99.90;;;;;;4986234;28;20282;-79
2021/09/05 08:55:00;;;;;;;29.27;24.65;;;25.70;99.90;;;;;;4987097;28;20588;-80
2021/09/05 08:57:27;;;;;;;33.47;25.05;;;24.80;99.90;;;;;;4989217;28;20468;-84
2021/09/05 08:59:55;;;;;;;31.10;24.52;;;24.20;99.90;;;;;;4987753;28;20226;-81
2021/09/05 09:02:23;;;;;;;34.35;24.30;;;25.90;99.90;;;;;;4995342;28;20206;-80
2021/09/05 09:04:54;;;;;;;30.40;23.90;;;26.10;99.90;;;;;;4986587;28;20513;-80
2021/09/05 09:07:21;;;;;;;32.70;26.13;;;27.10;99.90;;;;;;4984718;28;20199;-80
2021/09/05 09:09:58;;;;;;;26.52;22.30;;;25.70;99.90;;;;;;4984271;28;20204;-80
2021/09/05 09:12:39;;;;;;;28.27;23.77;;;26.90;99.90;;;;;;4987402;28;20202;-81
2021/09/05 09:15:19;;;;;;;29.90;22.95;;;25.10;99.90;;;;;;4982777;28;20285;-80
2021/09/05 09:17:51;;;;;;;28.00;23.23;;;25.20;99.90;;;;;;4983132;28;20337;-81
2021/09/05 09:20:40;;;;;;;29.70;23.23;;;25.50;99.90;;;;;;4993224;28;20223;-81
2021/09/05 09:23:10;;;;;;;30.35;23.42;;;23.90;99.90;;;;;;4983454;28;21291;-83
2021/09/05 09:25:37;;;;;;;29.92;22.38;;;23.20;99.90;;;;;;4990188;28;20233;-83
2021/09/05 09:28:23;;;;;;;29.10;22.10;;;24.20;99.90;;;;;;4983907;28;20278;-87
2021/09/05 09:30:50;;;;;;;29.38;23.48;;;23.90;99.90;;;;;;4991779;28;20277;-81
2021/09/05 09:33:22;;;;;;;28.23;22.45;;;23.50;99.90;;;;;;4990247;28;20280;-83
2021/09/05 09:35:51;;;;;;;28.55;22.10;;;23.80;99.90;;;;;;4989890;28;20274;-83
2021/09/05 09:38:19;;;;;;;32.03;24.48;;;24.00;99.90;;;;;;4983605;28;20213;-82
2021/09/05 09:40:47;;;;;;;30.08;21.98;;;23.90;99.90;;;;;;4991243;28;20325;-80
2021/09/05 09:43:18;;;;;;;30.92;23.25;;;24.00;99.90;;;;;;4987462;28;20313;-84
2021/09/05 09:45:45;;;;;;;30.38;22.17;;;23.20;99.90;;;;;;4993307;28;20195;-83
2021/09/05 09:48:12;;;;;;;27.33;22.55;;;23.40;99.90;;;;;;4990985;28;20197;-83
2021/09/05 09:50:43;;;;;;;27.23;22.08;;;21.90;99.90;;;;;;4991652;28;20205;-81
2021/09/05 09:53:10;;;;;;;27.08;20.70;;;22.20;99.90;;;;;;4988067;28;20214;-81
2021/09/05 09:55:39;;;;;;;28.05;21.83;;;23.30;99.90;;;;;;4989414;28;20731;-82
2021/09/05 09:58:07;;;;;;;27.73;20.77;;;22.20;99.90;;;;;;4986193;28;20726;-80
2021/09/05 10:00:34;;;;;;;27.17;21.13;;;21.60;99.90;;;;;;4988099;28;20660;-81
2021/09/05 10:03:02;;;;;;;29.65;21.60;;;21.20;99.90;;;;;;4985821;28;20198;-80
2021/09/05 10:05:29;;;;;;;29.33;21.45;;;21.10;99.90;;;;;;4985686;28;20199;-80
2021/09/05 10:07:57;;;;;;;31.85;19.77;;;21.80;99.90;;;;;;4983939;28;20386;-76
2021/09/05 10:10:25;;;;;;;24.58;19.95;;;22.00;99.90;;;;;;4981836;28;20297;-78
2021/09/05 10:12:55;;;;;;;26.83;20.52;;;21.60;99.90;;;;;;4985144;28;20198;-81
2021/09/05 10:15:22;;;;;;;27.95;20.67;;;21.60;99.90;;;;;;4981939;28;20203;-80
2021/09/05 10:17:50;;;;;;;28.65;20.33;;;21.90;99.90;;;;;;4984809;28;20217;-82
2021/09/05 10:20:18;;;;;;;31.05;21.63;;;22.20;99.90;;;;;;4987134;28;20344;-81
2021/09/05 10:22:45;;;;;;;30.33;22.65;;;21.90;99.90;;;;;;4989539;28;20202;-81
2021/09/05 10:25:17;;;;;;;27.42;22.25;;;21.30;99.90;;;;;;4988156;28;20349;-80
2021/09/05 10:27:48;;;;;;;27.13;20.15;;;21.20;99.90;;;;;;4988631;28;20223;-79
2021/09/05 10:30:17;;;;;;;26.67;20.02;;;21.40;99.90;;;;;;4990157;28;20573;-79
2021/09/05 10:32:46;;;;;;;30.30;22.42;;;21.70;99.90;;;;;;4985964;28;20646;-80
2021/09/05 10:35:38;;;;;;;24.83;19.70;;;21.30;99.90;;;;;;4986036;28;20203;-80
2021/09/05 10:38:22;;;;;;;27.83;20.90;;;21.80;99.90;;;;;;4978127;28;20226;-80
2021/09/05 10:40:57;;;;;;;26.50;20.67;;;21.60;99.90;;;;;;4989404;28;20624;-80
2021/09/05 10:43:25;;;;;;;;;;;21.50;99.90;;;;;;4984670;28;20631;-79
2021/09/05 10:45:53;;;;;;;;;;;21.70;99.90;;;;;;4983756;28;20036;-79
2021/09/05 10:48:36;;;;;;;;;;;21.60;99.90;;;;;;4978044;28;21316;-77
2021/09/05 10:51:06;;;;;;;;;;;21.90;99.90;;;;;;4979213;28;20032;-78
2021/09/05 10:53:35;;;;;;;;;;;21.70;99.90;;;;;;4983955;28;19939;-78
2021/09/05 10:56:22;;;;;;;;;;;22.10;99.90;;;;;;4985797;28;20060;-77
2021/09/05 10:58:55;;;;;;;;;;;22.10;99.90;;;;;;4983920;28;19933;-76
2021/09/05 11:01:31;;;;;;;;;;;22.00;99.90;;;;;;4987002;28;20102;-79
2021/09/05 11:04:26;;;;;;;;;;;22.20;99.90;;;;;;4985606;28;19926;-79
2021/09/05 11:06:56;;;;;;;;;;;22.30;99.90;;;;;;4985800;28;19933;-81
2021/09/05 11:09:41;;;;;;;;;;;22.40;99.90;;;;;;4981212;28;19938;-79
2021/09/05 11:12:10;;;;;;;;;;;22.60;99.90;;;;;;4986065;28;19949;-78
2021/09/05 11:14:56;;;;;;;;;;;22.60;99.90;;;;;;4985867;28;19929;-80
2021/09/05 11:17:24;;;;;;;;;;;22.60;99.90;;;;;;4976679;28;19965;-79
2021/09/05 11:19:52;;;;;;;;;;;22.30;99.90;;;;;;4979938;28;19934;-81
2021/09/05 11:22:20;;;;;;;;;;;22.40;99.90;;;;;;4985135;28;20016;-81
2021/09/05 11:24:47;;;;;;;;;;;22.30;99.90;;;;;;4984169;28;19926;-78
2021/09/05 11:27:15;;;;;;;;;;;22.70;99.90;;;;;;4987257;28;19926;-79
2021/09/05 11:29:42;;;;;;;;;;;23.20;99.90;;;;;;4983128;28;21494;-80
2021/09/05 11:32:10;;;;;;;;;;;23.40;99.90;;;;;;4983482;28;20020;-79
2021/09/05 11:34:37;;;;;;;;;;;23.20;99.90;;;;;;4976017;28;19926;-80
2021/09/05 11:37:04;;;;;;;;;;;23.20;99.90;;;;;;4985498;28;19960;-82
2021/09/05 11:39:31;;;;;;;;;;;23.10;99.90;;;;;;4988716;28;19933;-82
2021/09/05 11:41:59;;;;;;;;;;;23.10;99.90;;;;;;4987928;28;20332;-81
2021/09/05 11:44:30;;;;;;;;;;;23.00;99.90;;;;;;4980427;28;20447;-81
2021/09/05 11:47:07;;;;;;;;;;;23.20;99.90;;;;;;4988789;28;19932;-83
2021/09/05 11:49:34;;;;;;;;;;;23.30;99.90;;;;;;4988960;28;19926;-82
2021/09/05 11:52:00;;;;;;;;;;;23.50;99.90;;;;;;4988129;28;19956;-81
2021/09/05 11:54:27;;;;;;;;;;;23.60;99.90;;;;;;4989652;28;20465;-83
2021/09/05 11:56:55;;;;;;;;;;;23.50;99.90;;;;;;4989698;28;20373;-82
2021/09/05 11:59:21;;;;;;;;;;;23.70;99.90;;;;;;4985706;28;19934;-81
2021/09/05 12:01:52;;;;;;;;;;;23.90;99.90;;;;;;4985499;28;20628;-83
2021/09/05 12:04:19;;;;;;;;;;;24.00;99.90;;;;;;4983965;28;20033;-82
2021/09/05 12:06:46;;;;;;;;;;;23.70;99.90;;;;;;4987731;28;20444;-81
2021/09/05 12:09:13;;;;;;;;;;;23.80;99.90;;;;;;4986831;28;20016;-82
2021/09/05 12:11:54;;;;;;;;;;;23.80;99.90;;;;;;4991179;28;19926;-82
2021/09/05 12:14:27;;;;;;;;;;;24.00;99.90;;;;;;4987038;28;20000;-83
2021/09/05 12:16:55;;;;;;;;;;;23.90;99.90;;;;;;4988218;28;19926;-82
2021/09/05 12:19:22;;;;;;;;;;;24.00;99.90;;;;;;4987495;28;20021;-82
2021/09/05 12:21:56;;;;;;;;;;;23.80;99.90;;;;;;4987797;28;19931;-78
2021/09/05 12:24:22;;;;;;;;;;;23.70;99.90;;;;;;4987346;28;19929;-79
2021/09/05 12:26:49;;;;;;;;;;;23.90;99.90;;;;;;4990914;28;20012;-78
2021/09/05 12:29:25;;;;;;;;;;;24.10;99.90;;;;;;4989572;28;20408;-78
2021/09/05 12:31:52;;;;;;;;;;;24.00;99.90;;;;;;4993074;28;19926;-80
2021/09/05 12:34:39;;;;;;;;;;;24.10;99.90;;;;;;4989040;28;19926;-83
2021/09/05 12:37:13;;;;;;;;;;;24.40;99.90;;;;;;4986768;28;20319;-82
2021/09/05 12:39:40;;;;;;;;;;;24.20;99.90;;;;;;4985552;28;19926;-83
2021/09/05 12:42:08;;;;;;;;;;;24.20;99.90;;;;;;4989522;28;19965;-83
2021/09/05 12:44:39;;;;;;;;;;;24.50;99.90;;;;;;4987180;28;19941;-83
2021/09/05 12:47:06;;;;;;;;;;;24.50;99.90;;;;;;4986325;28;20020;-83
2021/09/05 12:49:38;;;;;;;;;;;24.70;99.90;;;;;;4986410;28;19926;-82
2021/09/05 12:52:06;;;;;;;;;;;24.80;99.90;;;;;;4986166;28;19926;-82
2021/09/05 12:54:38;;;;;;;;;;;24.80;99.90;;;;;;4992574;28;19965;-82
2021/09/05 12:57:05;;;;;;;;;;;24.50;99.90;;;;;;4998393;28;20192;-82
2021/09/05 12:59:32;;;;;;;;;;;24.70;99.90;;;;;;4990571;28;20400;-82
2021/09/05 13:01:59;;;;;;;;;;;24.90;99.90;;;;;;4989774;28;19926;-82